sensor_id;sensor_type;location;lat;lon;timestamp;temperature;humidity
14182;DHT22;7171;50.936;6.764;2023-04-03T00:00:42;6.00;99.90
14182;DHT22;7171;50.936;6.764;2023-04-03T00:05:37;6.00;99.90
14182;DHT22;7171;50.936;6.764;2023-04-03T00:10:33;6.00;99.90
14182;DHT22;7171;50.936;6.764;2023-04-03T00:13:02;5.90;99.90
14182;DHT22;7171;50.936;6.764;2023-04-03T00:15:28;5.90;99.90
14182;DHT22;7171;50.936;6.764;2023-04-03T00:20:22;5.90;99.90
14182;DHT22;7171;50.936;6.764;2023-04-03T00:25:17;5.90;99.90
14182;DHT22;7171;50.936;6.764;2023-04-03T00:30:15;5.80;99.90
14182;DHT22;7171;50.936;6.764;2023-04-03T00:35:10;5.80;99.90
14182;DHT22;7171;50.936;6.764;2023-04-03T00:40:06;5.80;99.90
14182;DHT22;7171;50.936;6.764;2023-04-03T00:45:32;5.60;99.90
14182;DHT22;7171;50.936;6.764;2023-04-03T00:48:00;5.50;99.90
14182;DHT22;7171;50.936;6.764;2023-04-03T00:50:28;5.50;99.90
14182;DHT22;7171;50.936;6.764;2023-04-03T00:52:56;5.40;99.90
14182;DHT22;7171;50.936;6.764;2023-04-03T00:55:24;5.40;99.90
14182;DHT22;7171;50.936;6.764;2023-04-03T00:57:52;5.40;99.90
14182;DHT22;7171;50.936;6.764;2023-04-03T01:00:21;5.30;99.90
14182;DHT22;7171;50.936;6.764;2023-04-03T01:02:50;5.30;99.90
14182;DHT22;7171;50.936;6.764;2023-04-03T01:05:19;5.30;99.90
14182;DHT22;7171;50.936;6.764;2023-04-03T01:07:47;5.30;99.90
14182;DHT22;7171;50.936;6.764;2023-04-03T01:10:16;5.30;99.90
14182;DHT22;7171;50.936;6.764;2023-04-03T01:12:46;5.20;99.90
14182;DHT22;7171;50.936;6.764;2023-04-03T01:15:16;5.20;99.90
14182;DHT22;7171;50.936;6.764;2023-04-03T01:17:44;5.20;99.90
14182;DHT22;7171;50.936;6.764;2023-04-03T01:23:32;5.20;99.90
14182;DHT22;7171;50.936;6.764;2023-04-03T01:26:02;5.20;99.90
14182;DHT22;7171;50.936;6.764;2023-04-03T01:28:31;5.20;99.90
14182;DHT22;7171;50.936;6.764;2023-04-03T01:31:02;5.20;99.90
14182;DHT22;7171;50.936;6.764;2023-04-03T01:33:34;5.20;99.90
14182;DHT22;7171;50.936;6.764;2023-04-03T01:38:28;5.10;99.90
14182;DHT22;7171;50.936;6.764;2023-04-03T01:43:21;5.00;99.90
14182;DHT22;7171;50.936;6.764;2023-04-03T01:45:48;5.00;99.90
14182;DHT22;7171;50.936;6.764;2023-04-03T01:48:16;5.00;99.90
14182;DHT22;7171;50.936;6.764;2023-04-03T01:50:44;4.90;99.90
14182;DHT22;7171;50.936;6.764;2023-04-03T01:53:11;4.80;99.90
14182;DHT22;7171;50.936;6.764;2023-04-03T01:58:05;4.70;99.90
14182;DHT22;7171;50.936;6.764;2023-04-03T02:02:59;4.70;99.90
14182;DHT22;7171;50.936;6.764;2023-04-03T02:05:25;4.60;99.90
14182;DHT22;7171;50.936;6.764;2023-04-03T02:07:54;4.60;99.90
14182;DHT22;7171;50.936;6.764;2023-04-03T02:10:21;4.60;99.90
14182;DHT22;7171;50.936;6.764;2023-04-03T02:15:15;4.50;99.90
14182;DHT22;7171;50.936;6.764;2023-04-03T02:17:41;4.50;99.90
14182;DHT22;7171;50.936;6.764;2023-04-03T02:20:08;4.50;99.90
14182;DHT22;7171;50.936;6.764;2023-04-03T02:22:36;4.50;99.90
14182;DHT22;7171;50.936;6.764;2023-04-03T02:25:04;4.40;99.90
14182;DHT22;7171;50.936;6.764;2023-04-03T02:29:58;4.40;99.90
14182;DHT22;7171;50.936;6.764;2023-04-03T02:34:52;4.40;99.90
14182;DHT22;7171;50.936;6.764;2023-04-03T02:39:46;4.40;99.90
14182;DHT22;7171;50.936;6.764;2023-04-03T02:42:14;4.40;99.90
14182;DHT22;7171;50.936;6.764;2023-04-03T02:44:41;4.40;99.90
14182;DHT22;7171;50.936;6.764;2023-04-03T02:49:35;4.40;99.90
14182;DHT22;7171;50.936;6.764;2023-04-03T02:52:02;4.40;99.90
14182;DHT22;7171;50.936;6.764;2023-04-03T02:59:25;4.30;99.90
14182;DHT22;7171;50.936;6.764;2023-04-03T03:01:52;4.30;99.90
14182;DHT22;7171;50.936;6.764;2023-04-03T03:06:46;4.20;99.90
14182;DHT22;7171;50.936;6.764;2023-04-03T03:09:13;4.20;99.90
14182;DHT22;7171;50.936;6.764;2023-04-03T03:11:40;4.20;99.90
14182;DHT22;7171;50.936;6.764;2023-04-03T03:16:35;4.20;99.90
14182;DHT22;7171;50.936;6.764;2023-04-03T03:21:30;4.10;99.90
14182;DHT22;7171;50.936;6.764;2023-04-03T03:23:56;4.10;99.90
14182;DHT22;7171;50.936;6.764;2023-04-03T03:26:23;4.00;99.90
14182;DHT22;7171;50.936;6.764;2023-04-03T03:28:50;4.00;99.90
14182;DHT22;7171;50.936;6.764;2023-04-03T03:33:46;4.00;99.90
14182;DHT22;7171;50.936;6.764;2023-04-03T03:36:12;4.00;99.90
14182;DHT22;7171;50.936;6.764;2023-04-03T03:43:34;4.00;99.90
14182;DHT22;7171;50.936;6.764;2023-04-03T03:48:28;3.90;99.90
14182;DHT22;7171;50.936;6.764;2023-04-03T03:50:56;3.90;99.90
14182;DHT22;7171;50.936;6.764;2023-04-03T03:53:23;3.90;99.90
14182;DHT22;7171;50.936;6.764;2023-04-03T03:58:16;3.90;99.90
14182;DHT22;7171;50.936;6.764;2023-04-03T04:03:10;3.90;99.90
14182;DHT22;7171;50.936;6.764;2023-04-03T04:08:06;3.90;99.90
14182;DHT22;7171;50.936;6.764;2023-04-03T04:10:33;3.90;99.90
14182;DHT22;7171;50.936;6.764;2023-04-03T04:12:59;3.90;99.90
14182;DHT22;7171;50.936;6.764;2023-04-03T04:15:26;3.90;99.90
14182;DHT22;7171;50.936;6.764;2023-04-03T04:17:53;3.90;99.90
14182;DHT22;7171;50.936;6.764;2023-04-03T04:22:47;3.90;99.90
14182;DHT22;7171;50.936;6.764;2023-04-03T04:25:15;3.90;99.90
14182;DHT22;7171;50.936;6.764;2023-04-03T04:27:42;3.90;99.90
14182;DHT22;7171;50.936;6.764;2023-04-03T04:30:10;3.90;99.90
14182;DHT22;7171;50.936;6.764;2023-04-03T04:32:37;3.90;99.90
14182;DHT22;7171;50.936;6.764;2023-04-03T04:35:04;3.90;99.90
14182;DHT22;7171;50.936;6.764;2023-04-03T04:37:31;3.90;99.90
14182;DHT22;7171;50.936;6.764;2023-04-03T04:39:58;3.90;99.90
14182;DHT22;7171;50.936;6.764;2023-04-03T04:42:26;3.90;99.90
14182;DHT22;7171;50.936;6.764;2023-04-03T04:47:20;3.90;99.90
14182;DHT22;7171;50.936;6.764;2023-04-03T04:52:14;3.90;99.90
14182;DHT22;7171;50.936;6.764;2023-04-03T04:54:41;3.90;99.90
14182;DHT22;7171;50.936;6.764;2023-04-03T04:59:37;3.90;99.90
14182;DHT22;7171;50.936;6.764;2023-04-03T05:02:04;3.90;99.90
14182;DHT22;7171;50.936;6.764;2023-04-03T05:04:31;3.90;99.90
14182;DHT22;7171;50.936;6.764;2023-04-03T05:11:53;3.90;99.90
14182;DHT22;7171;50.936;6.764;2023-04-03T05:14:20;3.90;99.90
14182;DHT22;7171;50.936;6.764;2023-04-03T05:16:48;3.90;99.90
14182;DHT22;7171;50.936;6.764;2023-04-03T05:19:18;3.90;99.90
14182;DHT22;7171;50.936;6.764;2023-04-03T05:24:12;3.80;99.90
14182;DHT22;7171;50.936;6.764;2023-04-03T05:26:39;3.80;99.90
14182;DHT22;7171;50.936;6.764;2023-04-03T05:31:33;3.80;99.90
14182;DHT22;7171;50.936;6.764;2023-04-03T05:34:01;3.80;99.90
14182;DHT22;7171;50.936;6.764;2023-04-03T05:36:28;3.80;99.90
14182;DHT22;7171;50.936;6.764;2023-04-03T05:38:55;3.80;99.90
14182;DHT22;7171;50.936;6.764;2023-04-03T05:41:23;3.80;99.90
14182;DHT22;7171;50.936;6.764;2023-04-03T05:46:19;3.80;99.90
14182;DHT22;7171;50.936;6.764;2023-04-03T05:51:16;3.90;99.90
14182;DHT22;7171;50.936;6.764;2023-04-03T05:53:44;3.90;99.90
14182;DHT22;7171;50.936;6.764;2023-04-03T05:58:38;3.90;99.90
14182;DHT22;7171;50.936;6.764;2023-04-03T06:03:33;3.90;99.90
14182;DHT22;7171;50.936;6.764;2023-04-03T06:06:02;3.90;99.90
14182;DHT22;7171;50.936;6.764;2023-04-03T06:08:31;3.90;99.90
14182;DHT22;7171;50.936;6.764;2023-04-03T06:13:25;4.00;99.90
14182;DHT22;7171;50.936;6.764;2023-04-03T06:15:52;3.90;99.90
14182;DHT22;7171;50.936;6.764;2023-04-03T06:18:18;3.90;99.90
14182;DHT22;7171;50.936;6.764;2023-04-03T06:20:46;4.00;99.90
14182;DHT22;7171;50.936;6.764;2023-04-03T06:23:12;4.00;99.90
14182;DHT22;7171;50.936;6.764;2023-04-03T06:25:41;4.00;99.90
14182;DHT22;7171;50.936;6.764;2023-04-03T06:28:08;4.00;99.90
14182;DHT22;7171;50.936;6.764;2023-04-03T06:33:03;4.00;99.90
14182;DHT22;7171;50.936;6.764;2023-04-03T06:38:00;4.10;99.90
14182;DHT22;7171;50.936;6.764;2023-04-03T06:42:58;4.10;99.90
14182;DHT22;7171;50.936;6.764;2023-04-03T06:45:24;4.20;99.90
14182;DHT22;7171;50.936;6.764;2023-04-03T06:47:51;4.20;99.90
14182;DHT22;7171;50.936;6.764;2023-04-03T07:00:10;4.30;99.90
14182;DHT22;7171;50.936;6.764;2023-04-03T07:02:37;4.40;99.90
14182;DHT22;7171;50.936;6.764;2023-04-03T07:05:04;4.40;99.90
14182;DHT22;7171;50.936;6.764;2023-04-03T07:07:31;4.40;99.90
14182;DHT22;7171;50.936;6.764;2023-04-03T07:12:26;4.50;99.90
14182;DHT22;7171;50.936;6.764;2023-04-03T07:17:21;4.60;99.90
14182;DHT22;7171;50.936;6.764;2023-04-03T07:22:15;4.60;99.90
14182;DHT22;7171;50.936;6.764;2023-04-03T07:27:09;4.70;99.90
14182;DHT22;7171;50.936;6.764;2023-04-03T07:29:38;4.80;99.90
14182;DHT22;7171;50.936;6.764;2023-04-03T07:32:05;4.90;99.90
14182;DHT22;7171;50.936;6.764;2023-04-03T07:34:34;4.90;99.90
14182;DHT22;7171;50.936;6.764;2023-04-03T07:39:28;5.00;99.90
14182;DHT22;7171;50.936;6.764;2023-04-03T07:44:23;5.20;99.90
14182;DHT22;7171;50.936;6.764;2023-04-03T07:49:17;5.30;99.90
14182;DHT22;7171;50.936;6.764;2023-04-03T07:51:45;5.30;99.90
14182;DHT22;7171;50.936;6.764;2023-04-03T07:54:14;5.40;99.90
14182;DHT22;7171;50.936;6.764;2023-04-03T07:56:41;5.40;99.90
14182;DHT22;7171;50.936;6.764;2023-04-03T07:59:08;5.40;99.90
14182;DHT22;7171;50.936;6.764;2023-04-03T08:01:35;5.40;99.90
14182;DHT22;7171;50.936;6.764;2023-04-03T08:06:31;5.60;99.90
14182;DHT22;7171;50.936;6.764;2023-04-03T08:09:02;5.60;99.90
14182;DHT22;7171;50.936;6.764;2023-04-03T08:11:29;5.60;99.90
14182;DHT22;7171;50.936;6.764;2023-04-03T08:13:56;5.70;99.90
14182;DHT22;7171;50.936;6.764;2023-04-03T08:16:24;5.70;99.90
14182;DHT22;7171;50.936;6.764;2023-04-03T08:18:52;5.80;99.90
14182;DHT22;7171;50.936;6.764;2023-04-03T08:21:19;5.80;99.90
14182;DHT22;7171;50.936;6.764;2023-04-03T08:23:48;5.80;99.90
14182;DHT22;7171;50.936;6.764;2023-04-03T08:26:18;5.90;99.90
14182;DHT22;7171;50.936;6.764;2023-04-03T08:28:46;5.90;99.90
14182;DHT22;7171;50.936;6.764;2023-04-03T08:31:15;6.00;99.90
14182;DHT22;7171;50.936;6.764;2023-04-03T08:33:44;6.00;99.90
14182;DHT22;7171;50.936;6.764;2023-04-03T08:36:17;6.10;99.90
14182;DHT22;7171;50.936;6.764;2023-04-03T08:38:45;6.10;99.90
14182;DHT22;7171;50.936;6.764;2023-04-03T08:41:15;6.20;99.90
14182;DHT22;7171;50.936;6.764;2023-04-03T08:43:56;6.20;99.90
14182;DHT22;7171;50.936;6.764;2023-04-03T08:46:25;6.30;99.90
14182;DHT22;7171;50.936;6.764;2023-04-03T08:48:58;6.30;99.90
14182;DHT22;7171;50.936;6.764;2023-04-03T08:51:26;6.40;99.90
14182;DHT22;7171;50.936;6.764;2023-04-03T08:53:58;6.40;99.90
14182;DHT22;7171;50.936;6.764;2023-04-03T08:56:27;6.50;99.90
14182;DHT22;7171;50.936;6.764;2023-04-03T08:59:00;6.50;99.90
14182;DHT22;7171;50.936;6.764;2023-04-03T09:01:30;6.60;99.90
14182;DHT22;7171;50.936;6.764;2023-04-03T09:04:01;6.70;99.90
14182;DHT22;7171;50.936;6.764;2023-04-03T09:06:31;6.70;99.90
14182;DHT22;7171;50.936;6.764;2023-04-03T09:09:08;6.80;99.90
14182;DHT22;7171;50.936;6.764;2023-04-03T09:11:46;6.90;99.90
14182;DHT22;7171;50.936;6.764;2023-04-03T09:14:19;7.00;99.90
14182;DHT22;7171;50.936;6.764;2023-04-03T09:16:51;7.00;99.90
14182;DHT22;7171;50.936;6.764;2023-04-03T09:19:34;7.00;99.90
14182;DHT22;7171;50.936;6.764;2023-04-03T09:22:12;7.10;99.90
14182;DHT22;7171;50.936;6.764;2023-04-03T09:24:41;7.10;99.90
14182;DHT22;7171;50.936;6.764;2023-04-03T09:27:10;7.20;99.90
14182;DHT22;7171;50.936;6.764;2023-04-03T09:29:41;7.30;99.90
14182;DHT22;7171;50.936;6.764;2023-04-03T09:32:26;7.30;99.90
14182;DHT22;7171;50.936;6.764;2023-04-03T09:34:56;7.40;99.90
14182;DHT22;7171;50.936;6.764;2023-04-03T09:37:39;7.60;99.90
14182;DHT22;7171;50.936;6.764;2023-04-03T09:40:32;7.60;99.90
14182;DHT22;7171;50.936;6.764;2023-04-03T09:43:02;7.70;99.90
14182;DHT22;7171;50.936;6.764;2023-04-03T09:45:33;7.80;99.90
14182;DHT22;7171;50.936;6.764;2023-04-03T09:48:08;7.90;99.90
14182;DHT22;7171;50.936;6.764;2023-04-03T09:50:36;7.90;99.90
14182;DHT22;7171;50.936;6.764;2023-04-03T09:53:07;7.90;99.90
14182;DHT22;7171;50.936;6.764;2023-04-03T09:55:52;8.00;99.90
14182;DHT22;7171;50.936;6.764;2023-04-03T09:58:27;8.00;99.90
14182;DHT22;7171;50.936;6.764;2023-04-03T10:00:57;8.10;99.90
14182;DHT22;7171;50.936;6.764;2023-04-03T10:03:29;8.10;99.90
14182;DHT22;7171;50.936;6.764;2023-04-03T10:08:28;8.20;99.90
14182;DHT22;7171;50.936;6.764;2023-04-03T10:11:13;8.30;99.90
14182;DHT22;7171;50.936;6.764;2023-04-03T10:13:53;8.30;99.90
14182;DHT22;7171;50.936;6.764;2023-04-03T10:16:26;8.30;99.90
14182;DHT22;7171;50.936;6.764;2023-04-03T10:19:02;8.50;99.90
14182;DHT22;7171;50.936;6.764;2023-04-03T10:21:38;8.50;99.90
14182;DHT22;7171;50.936;6.764;2023-04-03T10:24:11;8.70;99.90
14182;DHT22;7171;50.936;6.764;2023-04-03T10:26:46;8.70;99.90
14182;DHT22;7171;50.936;6.764;2023-04-03T10:29:26;8.80;99.90
14182;DHT22;7171;50.936;6.764;2023-04-03T10:31:59;9.00;99.90
14182;DHT22;7171;50.936;6.764;2023-04-03T10:34:31;9.00;99.90
14182;DHT22;7171;50.936;6.764;2023-04-03T10:37:09;9.10;99.90
14182;DHT22;7171;50.936;6.764;2023-04-03T10:39:44;9.20;99.90
14182;DHT22;7171;50.936;6.764;2023-04-03T10:42:20;9.20;99.90
14182;DHT22;7171;50.936;6.764;2023-04-03T10:44:59;9.20;99.90
14182;DHT22;7171;50.936;6.764;2023-04-03T10:47:34;9.30;99.90
14182;DHT22;7171;50.936;6.764;2023-04-03T10:50:22;9.30;99.90
14182;DHT22;7171;50.936;6.764;2023-04-03T10:52:56;9.30;99.90
14182;DHT22;7171;50.936;6.764;2023-04-03T10:55:32;9.30;99.90
14182;DHT22;7171;50.936;6.764;2023-04-03T10:58:04;9.30;99.90
14182;DHT22;7171;50.936;6.764;2023-04-03T11:00:36;9.30;99.90
14182;DHT22;7171;50.936;6.764;2023-04-03T11:03:11;9.30;99.90
14182;DHT22;7171;50.936;6.764;2023-04-03T11:05:42;9.30;99.90
14182;DHT22;7171;50.936;6.764;2023-04-03T11:08:15;9.40;99.90
14182;DHT22;7171;50.936;6.764;2023-04-03T11:10:48;9.40;99.90
14182;DHT22;7171;50.936;6.764;2023-04-03T11:13:19;9.50;99.90
14182;DHT22;7171;50.936;6.764;2023-04-03T11:15:49;9.60;99.90
14182;DHT22;7171;50.936;6.764;2023-04-03T11:18:19;9.60;99.90
14182;DHT22;7171;50.936;6.764;2023-04-03T11:20:53;9.60;99.90
14182;DHT22;7171;50.936;6.764;2023-04-03T11:23:25;9.70;99.90
14182;DHT22;7171;50.936;6.764;2023-04-03T11:25:56;9.70;99.90
14182;DHT22;7171;50.936;6.764;2023-04-03T11:28:26;9.70;99.90
14182;DHT22;7171;50.936;6.764;2023-04-03T11:31:01;9.70;99.90
14182;DHT22;7171;50.936;6.764;2023-04-03T11:33:48;9.70;99.90
14182;DHT22;7171;50.936;6.764;2023-04-03T11:36:21;9.70;99.90
14182;DHT22;7171;50.936;6.764;2023-04-03T11:38:52;9.80;99.90
14182;DHT22;7171;50.936;6.764;2023-04-03T11:41:26;9.80;99.90
14182;DHT22;7171;50.936;6.764;2023-04-03T11:43:58;9.90;99.90
14182;DHT22;7171;50.936;6.764;2023-04-03T11:46:49;10.00;99.90
14182;DHT22;7171;50.936;6.764;2023-04-03T11:52:55;10.20;99.90
14182;DHT22;7171;50.936;6.764;2023-04-03T11:55:42;10.20;99.90
14182;DHT22;7171;50.936;6.764;2023-04-03T11:58:15;10.30;99.90
14182;DHT22;7171;50.936;6.764;2023-04-03T12:00:54;10.40;99.90
14182;DHT22;7171;50.936;6.764;2023-04-03T12:09:26;10.40;99.90
14182;DHT22;7171;50.936;6.764;2023-04-03T12:11:55;10.40;99.90
14182;DHT22;7171;50.936;6.764;2023-04-03T12:14:23;10.40;99.90
14182;DHT22;7171;50.936;6.764;2023-04-03T12:16:52;10.40;99.90
14182;DHT22;7171;50.936;6.764;2023-04-03T12:19:36;10.40;99.90
14182;DHT22;7171;50.936;6.764;2023-04-03T12:22:14;10.60;99.90
14182;DHT22;7171;50.936;6.764;2023-04-03T12:24:45;10.50;99.90
14182;DHT22;7171;50.936;6.764;2023-04-03T12:27:33;10.60;99.90
14182;DHT22;7171;50.936;6.764;2023-04-03T12:30:15;10.60;99.90
14182;DHT22;7171;50.936;6.764;2023-04-03T12:35:36;10.60;99.90
14182;DHT22;7171;50.936;6.764;2023-04-03T12:38:35;10.60;99.90
14182;DHT22;7171;50.936;6.764;2023-04-03T12:41:23;10.60;99.90
14182;DHT22;7171;50.936;6.764;2023-04-03T12:46:45;10.70;99.90
14182;DHT22;7171;50.936;6.764;2023-04-03T12:49:26;10.80;99.90
14182;DHT22;7171;50.936;6.764;2023-04-03T12:51:57;10.80;99.90
14182;DHT22;7171;50.936;6.764;2023-04-03T12:54:29;10.80;99.90
14182;DHT22;7171;50.936;6.764;2023-04-03T12:57:10;10.80;99.90
14182;DHT22;7171;50.936;6.764;2023-04-03T12:59:37;10.80;99.90
14182;DHT22;7171;50.936;6.764;2023-04-03T13:02:15;10.80;99.90
14182;DHT22;7171;50.936;6.764;2023-04-03T13:04:44;10.80;99.90
14182;DHT22;7171;50.936;6.764;2023-04-03T13:07:20;10.80;99.90
14182;DHT22;7171;50.936;6.764;2023-04-03T13:09:56;10.70;99.90
14182;DHT22;7171;50.936;6.764;2023-04-03T13:12:24;10.80;99.90
14182;DHT22;7171;50.936;6.764;2023-04-03T13:14:56;10.80;99.90
14182;DHT22;7171;50.936;6.764;2023-04-03T13:17:23;10.80;99.90
14182;DHT22;7171;50.936;6.764;2023-04-03T13:22:26;10.80;99.90
14182;DHT22;7171;50.936;6.764;2023-04-03T13:24:56;10.80;99.90
14182;DHT22;7171;50.936;6.764;2023-04-03T13:27:27;10.90;99.90
14182;DHT22;7171;50.936;6.764;2023-04-03T13:29:58;10.90;99.90
14182;DHT22;7171;50.936;6.764;2023-04-03T13:32:29;11.00;99.90
14182;DHT22;7171;50.936;6.764;2023-04-03T13:34:57;11.10;99.90
14182;DHT22;7171;50.936;6.764;2023-04-03T13:37:26;11.00;99.90
14182;DHT22;7171;50.936;6.764;2023-04-03T13:40:01;11.00;99.90
14182;DHT22;7171;50.936;6.764;2023-04-03T13:42:33;11.00;99.90
14182;DHT22;7171;50.936;6.764;2023-04-03T13:45:18;11.00;99.90
14182;DHT22;7171;50.936;6.764;2023-04-03T13:47:48;11.10;99.90
14182;DHT22;7171;50.936;6.764;2023-04-03T13:50:17;11.10;99.90
14182;DHT22;7171;50.936;6.764;2023-04-03T13:52:47;11.10;99.90
14182;DHT22;7171;50.936;6.764;2023-04-03T13:55:21;11.10;99.90
14182;DHT22;7171;50.936;6.764;2023-04-03T13:57:53;11.10;99.90
14182;DHT22;7171;50.936;6.764;2023-04-03T14:00:30;11.20;99.90
14182;DHT22;7171;50.936;6.764;2023-04-03T14:02:57;11.20;99.90
14182;DHT22;7171;50.936;6.764;2023-04-03T14:07:53;11.30;99.90
14182;DHT22;7171;50.936;6.764;2023-04-03T14:10:21;11.40;99.90
14182;DHT22;7171;50.936;6.764;2023-04-03T14:12:48;11.40;99.90
14182;DHT22;7171;50.936;6.764;2023-04-03T14:15:20;11.50;99.90
14182;DHT22;7171;50.936;6.764;2023-04-03T14:17:49;11.60;99.90
14182;DHT22;7171;50.936;6.764;2023-04-03T14:20:21;11.60;99.90
14182;DHT22;7171;50.936;6.764;2023-04-03T14:22:51;11.70;99.90
14182;DHT22;7171;50.936;6.764;2023-04-03T14:25:20;11.90;99.90
14182;DHT22;7171;50.936;6.764;2023-04-03T14:27:50;11.90;99.90
14182;DHT22;7171;50.936;6.764;2023-04-03T14:30:21;11.90;99.90
14182;DHT22;7171;50.936;6.764;2023-04-03T14:32:48;11.90;99.90
14182;DHT22;7171;50.936;6.764;2023-04-03T14:35:16;11.90;99.90
14182;DHT22;7171;50.936;6.764;2023-04-03T14:37:44;11.80;99.90
14182;DHT22;7171;50.936;6.764;2023-04-03T14:40:16;11.80;99.90
14182;DHT22;7171;50.936;6.764;2023-04-03T14:42:43;11.90;99.90
14182;DHT22;7171;50.936;6.764;2023-04-03T14:45:12;11.90;99.90
14182;DHT22;7171;50.936;6.764;2023-04-03T14:47:44;12.00;99.90
14182;DHT22;7171;50.936;6.764;2023-04-03T14:50:14;12.00;99.90
14182;DHT22;7171;50.936;6.764;2023-04-03T14:52:41;12.00;99.90
14182;DHT22;7171;50.936;6.764;2023-04-03T14:55:08;12.00;99.90
14182;DHT22;7171;50.936;6.764;2023-04-03T14:57:35;12.00;99.90
14182;DHT22;7171;50.936;6.764;2023-04-03T15:00:04;12.10;99.90
14182;DHT22;7171;50.936;6.764;2023-04-03T15:02:33;12.20;99.90
14182;DHT22;7171;50.936;6.764;2023-04-03T15:05:04;12.20;99.90
14182;DHT22;7171;50.936;6.764;2023-04-03T15:07:34;12.20;99.90
14182;DHT22;7171;50.936;6.764;2023-04-03T15:10:05;12.20;99.90
14182;DHT22;7171;50.936;6.764;2023-04-03T15:12:33;12.20;99.90
14182;DHT22;7171;50.936;6.764;2023-04-03T15:14:59;12.20;99.90
14182;DHT22;7171;50.936;6.764;2023-04-03T15:17:26;12.20;99.90
14182;DHT22;7171;50.936;6.764;2023-04-03T15:19:53;12.00;99.90
14182;DHT22;7171;50.936;6.764;2023-04-03T15:22:21;12.10;99.90
14182;DHT22;7171;50.936;6.764;2023-04-03T15:24:48;12.20;99.90
14182;DHT22;7171;50.936;6.764;2023-04-03T15:27:15;12.20;99.90
14182;DHT22;7171;50.936;6.764;2023-04-03T15:29:43;12.30;99.90
14182;DHT22;7171;50.936;6.764;2023-04-03T15:32:11;12.40;99.90
14182;DHT22;7171;50.936;6.764;2023-04-03T15:34:40;12.50;99.90
14182;DHT22;7171;50.936;6.764;2023-04-03T15:37:07;12.50;99.90
14182;DHT22;7171;50.936;6.764;2023-04-03T15:39:41;12.60;99.90
14182;DHT22;7171;50.936;6.764;2023-04-03T15:42:07;12.60;99.90
14182;DHT22;7171;50.936;6.764;2023-04-03T15:44:36;12.70;99.90
14182;DHT22;7171;50.936;6.764;2023-04-03T15:47:07;12.90;99.90
14182;DHT22;7171;50.936;6.764;2023-04-03T15:52:02;13.30;99.90
14182;DHT22;7171;50.936;6.764;2023-04-03T15:54:29;13.40;99.90
14182;DHT22;7171;50.936;6.764;2023-04-03T15:56:57;13.50;99.90
14182;DHT22;7171;50.936;6.764;2023-04-03T15:59:24;13.50;99.90
14182;DHT22;7171;50.936;6.764;2023-04-03T16:01:51;13.50;99.90
14182;DHT22;7171;50.936;6.764;2023-04-03T16:04:19;13.60;99.90
14182;DHT22;7171;50.936;6.764;2023-04-03T16:06:47;13.60;99.90
14182;DHT22;7171;50.936;6.764;2023-04-03T16:09:14;13.70;99.90
14182;DHT22;7171;50.936;6.764;2023-04-03T16:11:41;13.80;99.90
14182;DHT22;7171;50.936;6.764;2023-04-03T16:14:19;13.80;99.90
14182;DHT22;7171;50.936;6.764;2023-04-03T16:16:49;13.80;99.90
14182;DHT22;7171;50.936;6.764;2023-04-03T16:19:16;13.80;99.90
14182;DHT22;7171;50.936;6.764;2023-04-03T16:21:43;13.80;99.90
14182;DHT22;7171;50.936;6.764;2023-04-03T16:24:10;13.70;99.90
14182;DHT22;7171;50.936;6.764;2023-04-03T16:26:36;13.70;99.90
14182;DHT22;7171;50.936;6.764;2023-04-03T16:29:03;13.60;99.90
14182;DHT22;7171;50.936;6.764;2023-04-03T16:31:32;13.50;99.90
14182;DHT22;7171;50.936;6.764;2023-04-03T16:34:00;13.40;99.90
14182;DHT22;7171;50.936;6.764;2023-04-03T16:36:27;13.30;99.90
14182;DHT22;7171;50.936;6.764;2023-04-03T16:38:53;13.10;99.90
14182;DHT22;7171;50.936;6.764;2023-04-03T16:41:20;13.00;99.90
14182;DHT22;7171;50.936;6.764;2023-04-03T16:43:47;12.70;99.90
14182;DHT22;7171;50.936;6.764;2023-04-03T16:46:15;12.50;99.90
14182;DHT22;7171;50.936;6.764;2023-04-03T16:48:43;12.30;99.90
14182;DHT22;7171;50.936;6.764;2023-04-03T16:51:11;12.10;99.90
14182;DHT22;7171;50.936;6.764;2023-04-03T16:53:38;11.90;99.90
14182;DHT22;7171;50.936;6.764;2023-04-03T16:56:05;11.60;99.90
14182;DHT22;7171;50.936;6.764;2023-04-03T17:01:00;11.30;99.90
14182;DHT22;7171;50.936;6.764;2023-04-03T17:03:34;11.10;99.90
14182;DHT22;7171;50.936;6.764;2023-04-03T17:06:02;11.00;99.90
14182;DHT22;7171;50.936;6.764;2023-04-03T17:08:29;10.90;99.90
14182;DHT22;7171;50.936;6.764;2023-04-03T17:23:19;10.30;99.90
14182;DHT22;7171;50.936;6.764;2023-04-03T17:25:46;10.20;99.90
14182;DHT22;7171;50.936;6.764;2023-04-03T17:28:12;10.10;99.90
14182;DHT22;7171;50.936;6.764;2023-04-03T17:30:39;10.10;99.90
14182;DHT22;7171;50.936;6.764;2023-04-03T17:35:33;10.00;99.90
14182;DHT22;7171;50.936;6.764;2023-04-03T17:40:28;9.90;99.90
14182;DHT22;7171;50.936;6.764;2023-04-03T17:47:50;9.70;99.90
14182;DHT22;7171;50.936;6.764;2023-04-03T17:50:17;9.60;99.90
14182;DHT22;7171;50.936;6.764;2023-04-03T17:52:44;9.60;99.90
14182;DHT22;7171;50.936;6.764;2023-04-03T17:57:41;9.50;99.90
14182;DHT22;7171;50.936;6.764;2023-04-03T18:00:09;9.50;99.90
14182;DHT22;7171;50.936;6.764;2023-04-03T18:02:36;9.40;99.90
14182;DHT22;7171;50.936;6.764;2023-04-03T18:05:03;9.30;99.90
14182;DHT22;7171;50.936;6.764;2023-04-03T18:07:30;9.30;99.90
14182;DHT22;7171;50.936;6.764;2023-04-03T18:09:58;9.20;99.90
14182;DHT22;7171;50.936;6.764;2023-04-03T18:12:25;9.20;99.90
14182;DHT22;7171;50.936;6.764;2023-04-03T18:14:53;9.20;99.90
14182;DHT22;7171;50.936;6.764;2023-04-03T18:17:20;9.10;99.90
14182;DHT22;7171;50.936;6.764;2023-04-03T18:22:16;9.00;99.90
14182;DHT22;7171;50.936;6.764;2023-04-03T18:24:45;9.00;99.90
14182;DHT22;7171;50.936;6.764;2023-04-03T18:27:14;9.00;99.90
14182;DHT22;7171;50.936;6.764;2023-04-03T18:29:43;8.90;99.90
14182;DHT22;7171;50.936;6.764;2023-04-03T18:32:15;8.80;99.90
14182;DHT22;7171;50.936;6.764;2023-04-03T18:37:10;8.70;99.90
14182;DHT22;7171;50.936;6.764;2023-04-03T18:39:37;8.60;99.90
14182;DHT22;7171;50.936;6.764;2023-04-03T18:42:05;8.50;99.90
14182;DHT22;7171;50.936;6.764;2023-04-03T18:47:01;8.40;99.90
14182;DHT22;7171;50.936;6.764;2023-04-03T18:49:30;8.40;99.90
14182;DHT22;7171;50.936;6.764;2023-04-03T18:51:58;8.30;99.90
14182;DHT22;7171;50.936;6.764;2023-04-03T18:54:25;8.20;99.90
14182;DHT22;7171;50.936;6.764;2023-04-03T18:59:18;8.20;99.90
14182;DHT22;7171;50.936;6.764;2023-04-03T19:04:13;8.10;99.90
14182;DHT22;7171;50.936;6.764;2023-04-03T19:06:42;8.10;99.90
14182;DHT22;7171;50.936;6.764;2023-04-03T19:09:09;8.10;99.90
14182;DHT22;7171;50.936;6.764;2023-04-03T19:14:03;8.10;99.90
14182;DHT22;7171;50.936;6.764;2023-04-03T19:16:30;8.10;99.90
14182;DHT22;7171;50.936;6.764;2023-04-03T19:21:25;8.00;99.90
14182;DHT22;7171;50.936;6.764;2023-04-03T19:23:53;8.00;99.90
14182;DHT22;7171;50.936;6.764;2023-04-03T19:26:23;8.00;99.90
14182;DHT22;7171;50.936;6.764;2023-04-03T19:31:19;7.90;99.90
14182;DHT22;7171;50.936;6.764;2023-04-03T19:36:13;7.90;99.90
14182;DHT22;7171;50.936;6.764;2023-04-03T19:41:12;7.80;99.90
14182;DHT22;7171;50.936;6.764;2023-04-03T19:43:39;7.80;99.90
14182;DHT22;7171;50.936;6.764;2023-04-03T19:48:34;7.70;99.90
14182;DHT22;7171;50.936;6.764;2023-04-03T19:51:02;7.70;99.90
14182;DHT22;7171;50.936;6.764;2023-04-03T19:55:57;7.60;99.90
14182;DHT22;7171;50.936;6.764;2023-04-03T19:58:26;7.60;99.90